createdAt,value
2018-12-16T00:02:53.172Z,16.57
2018-12-16T00:05:28.199Z,16.37
2018-12-16T00:08:02.296Z,16.40
2018-12-16T00:10:37.408Z,16.93
2018-12-16T00:13:12.196Z,16.10
2018-12-16T00:15:46.747Z,15.93
2018-12-16T00:18:24.801Z,17.43
2018-12-16T00:20:59.074Z,16.40
2018-12-16T00:23:33.097Z,14.87
2018-12-16T00:26:07.260Z,15.73
2018-12-16T00:28:41.365Z,17.70
2018-12-16T00:31:15.735Z,17.13
2018-12-16T00:33:49.780Z,17.63
2018-12-16T00:36:24.083Z,18.20
2018-12-16T00:38:58.251Z,17.43
2018-12-16T00:41:32.367Z,17.93
2018-12-16T00:44:07.227Z,17.47
2018-12-16T00:46:41.355Z,16.13
2018-12-16T00:49:19.163Z,16.37
2018-12-16T00:51:53.477Z,16.73
2018-12-16T00:54:29.092Z,16.47
2018-12-16T00:57:07.492Z,17.70
2018-12-16T00:59:41.659Z,17.27
2018-12-16T01:02:20.613Z,16.97
2018-12-16T01:07:27.643Z,17.23
2018-12-16T01:10:01.703Z,16.33
2018-12-16T01:12:35.979Z,17.03
2018-12-16T01:15:14.766Z,17.07
2018-12-16T01:17:49.023Z,17.70
2018-12-16T01:20:22.910Z,17.77
2018-12-16T01:22:57.301Z,17.90
2018-12-16T01:25:31.382Z,16.27
2018-12-16T01:28:05.448Z,17.60
2018-12-16T01:30:40.235Z,17.40
2018-12-16T01:33:14.396Z,17.40
2018-12-16T01:35:48.456Z,17.20
2018-12-16T01:38:22.416Z,16.90
2018-12-16T01:40:56.632Z,16.57
2018-12-16T01:43:30.959Z,17.13
2018-12-16T01:46:05.070Z,16.10
2018-12-16T01:48:38.974Z,16.70
2018-12-16T01:51:13.023Z,15.57
2018-12-16T01:53:51.403Z,17.03
2018-12-16T01:56:29.229Z,15.37
2018-12-16T01:59:03.102Z,16.17
2018-12-16T02:01:39.135Z,17.23
2018-12-16T02:04:13.329Z,17.50
2018-12-16T02:06:47.427Z,16.97
2018-12-16T02:09:21.392Z,16.60
2018-12-16T02:11:55.587Z,18.03
2018-12-16T02:14:29.955Z,16.77
2018-12-16T02:17:03.783Z,16.63
2018-12-16T02:19:38.160Z,16.03
2018-12-16T02:22:12.394Z,16.57
2018-12-16T02:24:46.729Z,16.23
2018-12-16T02:27:20.722Z,16.13
2018-12-16T02:29:58.710Z,16.20
2018-12-16T02:32:32.748Z,16.50
2018-12-16T02:35:07.613Z,15.83
2018-12-16T02:37:41.498Z,16.60
2018-12-16T02:40:15.637Z,16.87
2018-12-16T02:42:49.665Z,17.03
2018-12-16T02:45:23.955Z,16.80
2018-12-16T02:47:58.771Z,15.93
2018-12-16T02:50:32.709Z,16.73
2018-12-16T02:53:07.584Z,16.53
2018-12-16T02:55:42.240Z,16.43
2018-12-16T02:58:16.107Z,16.37
2018-12-16T03:00:50.262Z,17.17
2018-12-16T03:03:24.277Z,16.17
2018-12-16T03:05:59.006Z,16.07
2018-12-16T03:08:33.045Z,16.03
2018-12-16T03:18:45.509Z,15.83
2018-12-16T03:26:25.191Z,14.90
2018-12-16T03:28:59.257Z,15.43
2018-12-16T03:31:33.451Z,14.80
2018-12-16T03:34:08.282Z,16.17
2018-12-16T03:36:42.549Z,16.37
2018-12-16T03:39:16.827Z,15.90
2018-12-16T03:41:51.180Z,15.73
2018-12-16T03:44:25.200Z,15.37
2018-12-16T03:46:59.202Z,16.70
2018-12-16T03:49:40.218Z,16.70
2018-12-16T03:52:14.079Z,15.67
2018-12-16T03:54:52.304Z,15.70
2018-12-16T03:57:26.757Z,16.77
2018-12-16T04:00:00.807Z,15.10
2018-12-16T04:02:35.038Z,15.63
2018-12-16T04:05:09.379Z,16.50
2018-12-16T04:07:43.475Z,15.87
2018-12-16T04:10:17.767Z,15.50
2018-12-16T04:12:53.240Z,15.87
2018-12-16T04:15:27.231Z,16.10
2018-12-16T04:18:01.420Z,17.60
2018-12-16T04:20:35.496Z,15.53
2018-12-16T04:23:09.721Z,15.63
2018-12-16T04:25:47.810Z,15.53
2018-12-16T04:28:21.712Z,15.00
2018-12-16T04:30:56.501Z,16.07
2018-12-16T04:33:30.531Z,15.43
2018-12-16T04:36:04.525Z,15.50
2018-12-16T04:38:38.514Z,15.53
2018-12-16T04:41:17.172Z,15.67
2018-12-16T04:43:55.803Z,17.10
2018-12-16T04:46:29.812Z,15.53
2018-12-16T04:49:04.613Z,16.20
2018-12-16T04:51:39.390Z,15.60
2018-12-16T04:54:13.476Z,15.80
2018-12-16T04:56:47.462Z,15.90
2018-12-16T04:59:21.465Z,15.93
2018-12-16T05:01:55.615Z,15.13
2018-12-16T05:04:29.831Z,16.23
2018-12-16T05:07:03.942Z,16.73
2018-12-16T05:09:38.063Z,15.70
2018-12-16T05:12:12.184Z,15.10
2018-12-16T05:14:46.188Z,16.37
2018-12-16T05:17:20.435Z,15.43
2018-12-16T05:19:54.493Z,15.33
2018-12-16T05:22:29.634Z,15.87
2018-12-16T05:25:04.658Z,16.60
2018-12-16T05:30:12.073Z,16.37
2018-12-16T05:32:46.731Z,16.67
2018-12-16T05:35:20.703Z,16.30
2018-12-16T05:37:54.859Z,16.77
2018-12-16T05:40:29.272Z,16.50
2018-12-16T05:43:03.971Z,15.83
2018-12-16T05:45:37.980Z,15.77
2018-12-16T05:48:12.089Z,16.17
2018-12-16T05:50:46.437Z,16.00
2018-12-16T05:53:20.330Z,16.97
2018-12-16T05:55:58.360Z,16.10
2018-12-16T05:58:36.586Z,16.30
2018-12-16T06:01:10.528Z,15.97
2018-12-16T06:03:44.759Z,15.63
2018-12-16T06:06:18.711Z,15.97
2018-12-16T06:08:52.631Z,15.00
2018-12-16T06:11:26.740Z,16.20
2018-12-16T06:14:00.599Z,16.17
2018-12-16T06:16:35.820Z,16.33
2018-12-16T06:19:10.695Z,16.40
2018-12-16T06:21:44.831Z,15.33
2018-12-16T06:24:22.805Z,14.73
2018-12-16T06:26:56.748Z,15.60
2018-12-16T06:32:04.129Z,16.10
2018-12-16T06:34:38.022Z,16.53
2018-12-16T06:37:11.871Z,16.00
2018-12-16T06:39:49.761Z,15.70
2018-12-16T06:42:23.740Z,18.07
2018-12-16T06:44:58.484Z,16.43
2018-12-16T06:47:32.748Z,17.33
2018-12-16T06:50:08.144Z,16.87
2018-12-16T06:52:42.298Z,17.87
2018-12-16T06:55:16.413Z,15.87
2018-12-16T06:57:50.472Z,16.03
2018-12-16T07:00:25.174Z,15.73
2018-12-16T07:02:59.701Z,16.30
2018-12-16T07:05:33.702Z,16.67
2018-12-16T07:08:08.330Z,15.40
2018-12-16T07:10:42.565Z,15.30
2018-12-16T07:13:17.351Z,16.40
2018-12-16T07:15:51.849Z,15.70
2018-12-16T07:18:25.818Z,15.60
2018-12-16T07:21:00.163Z,15.80
2018-12-16T07:23:34.279Z,15.60
2018-12-16T07:26:08.557Z,15.37
2018-12-16T07:28:43.554Z,14.57
2018-12-16T07:31:17.405Z,15.00
2018-12-16T07:38:57.372Z,15.53
2018-12-16T07:41:31.297Z,14.20
2018-12-16T07:44:05.463Z,15.30
2018-12-16T07:46:39.470Z,16.80
2018-12-16T07:49:13.730Z,30.10
2018-12-16T07:51:47.995Z,18.40
2018-12-16T07:54:22.203Z,15.83
2018-12-16T07:56:56.548Z,15.37
2018-12-16T07:59:31.256Z,15.90
2018-12-16T08:02:05.431Z,15.00
2018-12-16T08:04:39.380Z,15.33
2018-12-16T08:07:13.628Z,14.13
2018-12-16T08:09:48.419Z,15.03
2018-12-16T08:12:22.629Z,15.30
2018-12-16T08:14:56.843Z,15.47
2018-12-16T08:17:31.540Z,13.83
2018-12-16T08:20:06.859Z,13.90
2018-12-16T08:22:41.005Z,14.97
2018-12-16T08:25:15.316Z,12.87
2018-12-16T08:27:53.457Z,13.77
2018-12-16T08:30:27.521Z,14.87
2018-12-16T08:33:05.687Z,15.57
2018-12-16T08:35:39.975Z,14.33
2018-12-16T08:38:14.283Z,15.27
2018-12-16T08:40:48.708Z,14.10
2018-12-16T08:43:22.909Z,14.63
2018-12-16T08:45:56.843Z,14.87
2018-12-16T08:48:30.995Z,15.23
2018-12-16T08:51:09.148Z,14.67
2018-12-16T08:53:44.034Z,15.33
2018-12-16T08:56:17.990Z,14.73
2018-12-16T08:58:52.265Z,14.50
2018-12-16T09:01:26.095Z,15.03
2018-12-16T09:04:00.836Z,14.87
2018-12-16T09:06:35.995Z,15.97
2018-12-16T09:09:11.309Z,15.30
2018-12-16T09:11:45.868Z,14.77
2018-12-16T09:14:19.959Z,15.73
2018-12-16T09:16:54.108Z,14.17
2018-12-16T09:19:28.192Z,15.17
2018-12-16T09:22:03.179Z,14.13
2018-12-16T09:24:37.651Z,14.83
2018-12-16T09:27:12.416Z,15.50
2018-12-16T09:29:46.573Z,15.40
2018-12-16T09:32:24.541Z,15.13
2018-12-16T09:34:58.532Z,14.27
2018-12-16T09:37:32.658Z,14.83
2018-12-16T09:40:08.028Z,15.03
2018-12-16T09:55:29.946Z,15.27
2018-12-16T09:58:04.029Z,15.93
2018-12-16T10:00:38.264Z,15.13
2018-12-16T10:03:14.360Z,15.00
2018-12-16T10:05:52.732Z,15.20
2018-12-16T10:08:28.110Z,17.87
2018-12-16T10:11:02.651Z,18.43
2018-12-16T10:13:36.743Z,16.80
2018-12-16T10:16:11.103Z,14.53
2018-12-16T10:18:45.215Z,13.50
2018-12-16T10:21:19.453Z,14.50
2018-12-16T10:23:53.453Z,15.70
2018-12-16T10:26:27.598Z,14.97
2018-12-16T10:29:05.693Z,17.63
2018-12-16T10:31:39.907Z,14.67
2018-12-16T10:34:14.077Z,23.53
2018-12-16T10:36:48.205Z,17.60
2018-12-16T10:39:23.435Z,15.63
2018-12-16T10:41:58.181Z,12.33
2018-12-16T10:44:32.599Z,12.67
2018-12-16T10:47:07.590Z,13.60
2018-12-16T10:49:41.618Z,14.43
2018-12-16T10:52:15.932Z,12.97
2018-12-16T11:02:29.679Z,11.97
2018-12-16T11:05:04.555Z,11.43
2018-12-16T11:07:38.774Z,11.20
2018-12-16T11:10:14.684Z,12.17
2018-12-16T11:12:49.078Z,10.70
2018-12-16T11:15:23.841Z,11.13
2018-12-16T11:17:58.686Z,10.43
2018-12-16T11:20:36.800Z,15.73
2018-12-16T11:23:11.886Z,23.83
2018-12-16T11:25:52.091Z,28.77
2018-12-16T11:28:30.998Z,14.00
2018-12-16T11:31:05.237Z,26.80
2018-12-16T11:33:39.521Z,35.87
2018-12-16T11:36:14.388Z,22.50
2018-12-16T11:38:48.476Z,10.17
2018-12-16T11:41:22.589Z,11.97
2018-12-16T11:43:56.616Z,9.87
2018-12-16T11:46:31.157Z,9.73
2018-12-16T11:49:06.074Z,10.43
2018-12-16T11:51:40.564Z,9.83
2018-12-16T11:54:14.897Z,10.90
2018-12-16T11:56:49.645Z,9.40
2018-12-16T11:59:23.638Z,10.37
2018-12-16T12:01:57.779Z,9.90
2018-12-16T12:04:32.372Z,9.67
2018-12-16T12:07:07.243Z,9.97
2018-12-16T12:09:41.229Z,11.07
2018-12-16T12:12:15.430Z,10.47
2018-12-16T12:14:49.532Z,10.57
2018-12-16T12:17:23.631Z,41.50
2018-12-16T12:19:57.646Z,11.10
2018-12-16T12:22:32.411Z,20.57
2018-12-16T12:25:06.906Z,11.23
2018-12-16T12:27:41.348Z,11.80
2018-12-16T12:30:15.811Z,10.33
2018-12-16T12:32:50.639Z,11.47
2018-12-16T12:35:25.660Z,11.63
2018-12-16T12:38:01.180Z,11.33
2018-12-16T12:40:39.362Z,11.33
2018-12-16T12:43:13.450Z,11.73
2018-12-16T12:45:48.769Z,11.93
2018-12-16T12:48:22.892Z,13.13
2018-12-16T12:50:56.998Z,16.97
2018-12-16T12:53:31.092Z,12.13
2018-12-16T12:56:06.133Z,12.03
2018-12-16T12:58:40.380Z,11.33
2018-12-16T13:01:18.423Z,12.40
2018-12-16T13:03:52.367Z,10.73
2018-12-16T13:06:26.756Z,12.27
2018-12-16T13:09:01.579Z,12.23
2018-12-16T13:11:35.632Z,12.67
2018-12-16T13:14:09.696Z,12.50
2018-12-16T13:16:43.949Z,13.70
2018-12-16T13:19:19.120Z,12.80
2018-12-16T13:21:58.523Z,13.53
2018-12-16T13:24:33.432Z,13.80
2018-12-16T13:27:07.587Z,13.87
2018-12-16T13:29:41.896Z,13.27
2018-12-16T13:32:16.788Z,14.53
2018-12-16T13:34:51.010Z,13.97
2018-12-16T13:37:29.358Z,15.10
2018-12-16T13:40:04.277Z,14.37
2018-12-16T13:42:38.611Z,14.03
2018-12-16T13:45:13.648Z,15.47
2018-12-16T13:47:48.660Z,15.37
2018-12-16T13:50:26.663Z,16.80
2018-12-16T13:53:01.582Z,16.77
2018-12-16T13:55:40.841Z,16.20
2018-12-16T13:58:12.194Z,17.33
2018-12-16T14:00:47.112Z,16.70
2018-12-16T14:03:25.215Z,18.13
2018-12-16T14:05:59.888Z,17.10
2018-12-16T14:08:34.338Z,15.77
2018-12-16T14:11:09.300Z,17.43
2018-12-16T14:13:43.380Z,15.40
2018-12-16T14:16:17.472Z,16.80
2018-12-16T14:18:51.702Z,17.63
2018-12-16T14:21:25.939Z,17.50
2018-12-16T14:24:04.312Z,18.23
2018-12-16T14:26:42.893Z,17.47
2018-12-16T14:29:17.913Z,17.63
2018-12-16T14:31:52.034Z,18.23
2018-12-16T14:34:26.124Z,17.10
2018-12-16T14:37:01.124Z,17.80
2018-12-16T14:39:36.176Z,19.33
2018-12-16T14:42:10.481Z,19.77
2018-12-16T14:44:45.441Z,18.60
2018-12-16T14:47:19.723Z,20.43
2018-12-16T14:49:54.597Z,21.00
2018-12-16T14:52:28.711Z,21.77
2018-12-16T14:55:08.441Z,22.70
2018-12-16T14:57:43.165Z,31.93
2018-12-16T15:00:18.199Z,33.20
2018-12-16T15:02:56.339Z,32.13
2018-12-16T15:05:30.366Z,39.10
2018-12-16T15:08:04.761Z,25.53
2018-12-16T15:10:39.678Z,28.83
2018-12-16T15:13:13.781Z,27.67
2018-12-16T15:15:47.998Z,33.63
2018-12-16T15:18:26.833Z,35.17
2018-12-16T15:21:01.292Z,33.43
2018-12-16T15:23:37.369Z,34.57
2018-12-16T15:26:12.960Z,34.57
2018-12-16T15:28:47.403Z,32.50
2018-12-16T15:31:21.606Z,33.00
2018-12-16T15:33:55.591Z,30.70
2018-12-16T15:36:33.684Z,31.47
2018-12-16T15:39:08.974Z,29.03
2018-12-16T15:41:43.100Z,26.17
2018-12-16T15:44:17.140Z,24.07
2018-12-16T15:46:56.077Z,30.43
2018-12-16T15:49:31.087Z,27.23
2018-12-16T15:52:05.693Z,24.97
2018-12-16T15:54:41.183Z,22.73
2018-12-16T15:57:15.763Z,24.87
2018-12-16T15:59:50.126Z,26.10
2018-12-16T16:02:24.957Z,25.57
2018-12-16T16:04:59.925Z,24.80
2018-12-16T16:07:35.628Z,24.83
2018-12-16T16:10:10.422Z,22.87
2018-12-16T16:12:49.227Z,58.77
2018-12-16T16:15:23.527Z,39.13
2018-12-16T16:17:58.221Z,25.70
2018-12-16T16:20:32.596Z,23.70
2018-12-16T16:23:06.965Z,24.07
2018-12-16T16:25:41.652Z,22.47
2018-12-16T16:28:15.723Z,23.63
2018-12-16T16:30:54.414Z,24.30
2018-12-16T16:33:29.115Z,23.83
2018-12-16T16:36:04.031Z,24.03
2018-12-16T16:38:38.435Z,25.47
2018-12-16T16:41:12.495Z,27.00
2018-12-16T16:43:46.669Z,25.27
2018-12-16T16:46:21.708Z,26.87
2018-12-16T16:48:56.078Z,24.90
2018-12-16T16:51:30.721Z,27.00
2018-12-16T16:54:05.094Z,29.20
2018-12-16T16:56:39.886Z,21.53
2018-12-16T16:59:14.283Z,26.40
2018-12-16T17:01:49.000Z,24.37
2018-12-16T17:04:23.690Z,27.83
2018-12-16T17:06:57.770Z,27.17
2018-12-16T17:09:33.353Z,23.93
2018-12-16T17:12:12.070Z,22.83
2018-12-16T17:14:47.120Z,24.17
2018-12-16T17:17:21.318Z,26.03
2018-12-16T17:19:56.426Z,27.87
2018-12-16T17:22:31.455Z,22.93
2018-12-16T17:25:08.800Z,24.37
2018-12-16T17:27:43.705Z,24.40
2018-12-16T17:30:18.705Z,24.17
2018-12-16T17:32:52.887Z,27.43
2018-12-16T17:35:28.154Z,24.80
2018-12-16T17:38:03.165Z,31.07
2018-12-16T17:40:38.196Z,28.73
2018-12-16T17:43:13.132Z,26.33
2018-12-16T17:45:47.633Z,33.77
2018-12-16T17:48:21.714Z,30.43
2018-12-16T17:50:56.839Z,29.40
2018-12-16T17:53:31.665Z,30.90
2018-12-16T17:56:06.303Z,31.13
2018-12-16T17:58:41.155Z,25.33
2018-12-16T18:01:16.120Z,28.67
2018-12-16T18:03:50.184Z,27.03
2018-12-16T18:06:24.175Z,28.90
2018-12-16T18:08:58.465Z,28.60
2018-12-16T18:11:37.437Z,31.60
2018-12-16T18:14:16.382Z,23.33
2018-12-16T18:16:50.720Z,23.10
2018-12-16T18:19:25.033Z,26.83
2018-12-16T18:22:01.397Z,24.43
2018-12-16T18:24:36.342Z,21.00
2018-12-16T18:27:11.248Z,23.40
2018-12-16T18:29:46.253Z,23.63
2018-12-16T18:32:20.429Z,21.40
2018-12-16T18:34:58.566Z,21.77
2018-12-16T18:37:33.585Z,21.50
2018-12-16T18:40:08.541Z,21.13
2018-12-16T18:42:42.998Z,19.23
2018-12-16T18:45:17.175Z,20.20
2018-12-16T18:47:51.420Z,24.43
2018-12-16T18:50:25.757Z,24.27
2018-12-16T18:52:59.917Z,29.47
2018-12-16T18:55:34.843Z,22.77
2018-12-16T18:58:13.431Z,27.80
2018-12-16T19:00:48.396Z,24.60
2018-12-16T19:03:23.221Z,26.07
2018-12-16T19:05:57.443Z,27.03
2018-12-16T19:08:31.861Z,33.27
2018-12-16T19:11:06.891Z,33.97
2018-12-16T19:13:41.095Z,32.47
2018-12-16T19:16:15.154Z,32.47
2018-12-16T19:18:49.790Z,34.50
2018-12-16T19:21:24.215Z,29.13
2018-12-16T19:23:58.366Z,31.90
2018-12-16T19:26:36.770Z,31.97
2018-12-16T19:29:11.704Z,29.60
2018-12-16T19:31:46.758Z,29.77
2018-12-16T19:34:21.157Z,29.53
2018-12-16T19:36:55.264Z,28.23
2018-12-16T19:39:33.768Z,26.97
2018-12-16T19:42:08.690Z,25.57
2018-12-16T19:44:42.859Z,27.83
2018-12-16T19:47:21.006Z,37.47
2018-12-16T19:49:55.087Z,27.07
2018-12-16T19:52:29.220Z,31.30
2018-12-16T19:55:03.606Z,30.37
2018-12-16T19:57:37.931Z,29.97
2018-12-16T20:00:12.468Z,31.17
2018-12-16T20:02:46.791Z,30.23
2018-12-16T20:05:23.664Z,28.97
2018-12-16T20:07:58.384Z,31.10
2018-12-16T20:10:33.291Z,31.27
2018-12-16T20:13:08.196Z,32.27
2018-12-16T20:15:43.216Z,29.10
2018-12-16T20:18:17.499Z,31.00
2018-12-16T20:20:56.725Z,27.90
2018-12-16T20:23:31.407Z,29.50
2018-12-16T20:26:06.095Z,28.90
2018-12-16T20:28:41.023Z,27.63
2018-12-16T20:31:16.292Z,28.70
2018-12-16T20:33:51.441Z,30.50
2018-12-16T20:36:26.333Z,57.90
2018-12-16T20:39:00.461Z,34.67
2018-12-16T20:41:35.602Z,32.47
2018-12-16T20:44:11.414Z,33.03
2018-12-16T20:46:46.445Z,28.27
2018-12-16T20:49:20.901Z,23.53
2018-12-16T20:51:56.045Z,24.80
2018-12-16T20:54:31.979Z,23.40
2018-12-16T20:57:06.719Z,24.80
2018-12-16T20:59:41.582Z,25.63
2018-12-16T21:02:16.765Z,24.30
2018-12-16T21:04:56.052Z,25.77
2018-12-16T21:07:31.213Z,24.40
2018-12-16T21:10:10.334Z,24.03
2018-12-16T21:12:49.352Z,28.20
2018-12-16T21:15:29.375Z,26.73
2018-12-16T21:18:08.357Z,28.60
2018-12-16T21:20:47.361Z,29.63
2018-12-16T21:23:22.482Z,30.87
2018-12-16T21:25:57.757Z,30.67
2018-12-16T21:28:33.035Z,33.97
2018-12-16T21:31:08.070Z,31.50
2018-12-16T21:33:43.070Z,34.03
2018-12-16T21:36:18.180Z,28.03
2018-12-16T21:38:52.356Z,31.00
2018-12-16T21:41:26.607Z,28.27
2018-12-16T21:44:01.442Z,25.93
2018-12-16T21:46:36.795Z,22.97
2018-12-16T21:49:11.816Z,26.50
2018-12-16T21:51:46.770Z,22.97
2018-12-16T21:54:21.831Z,25.30
2018-12-16T21:56:55.866Z,23.97
2018-12-16T21:59:31.041Z,25.60
2018-12-16T22:02:06.212Z,24.97
2018-12-16T22:04:40.294Z,38.63
2018-12-16T22:07:15.515Z,30.70
2018-12-16T22:09:51.322Z,26.23
2018-12-16T22:12:25.755Z,25.50
2018-12-16T22:15:00.030Z,24.90
2018-12-16T22:17:35.738Z,28.73
2018-12-16T22:20:10.457Z,26.80
2018-12-16T22:22:45.431Z,28.23
2018-12-16T22:25:19.735Z,27.50
2018-12-16T22:27:54.753Z,25.07
2018-12-16T22:30:29.237Z,23.73
2018-12-16T22:33:04.585Z,24.63
2018-12-16T22:35:39.595Z,23.57
2018-12-16T22:38:14.877Z,24.53
2018-12-16T22:40:49.795Z,23.73
2018-12-16T22:43:25.095Z,24.67
2018-12-16T22:45:59.885Z,24.70
2018-12-16T22:48:38.020Z,24.70
2018-12-16T22:51:13.277Z,29.13
2018-12-16T22:53:47.499Z,28.07
2018-12-16T22:56:21.501Z,26.53
2018-12-16T22:58:56.520Z,33.30
2018-12-16T23:01:31.793Z,26.20
2018-12-16T23:04:10.128Z,25.67
2018-12-16T23:06:44.089Z,24.93
2018-12-16T23:09:18.710Z,24.13
2018-12-16T23:11:52.885Z,27.17
2018-12-16T23:14:27.310Z,23.07
2018-12-16T23:17:05.614Z,25.53
2018-12-16T23:19:39.728Z,24.77
2018-12-16T23:22:14.428Z,23.03
2018-12-16T23:24:53.323Z,24.07
2018-12-16T23:27:31.288Z,24.17
2018-12-16T23:30:10.104Z,24.77
2018-12-16T23:32:48.856Z,24.30
2018-12-16T23:35:23.649Z,24.43
2018-12-16T23:37:57.691Z,23.87
2018-12-16T23:40:38.953Z,25.53
2018-12-16T23:43:13.718Z,24.70
2018-12-16T23:45:48.140Z,25.40
2018-12-16T23:48:22.362Z,23.80
2018-12-16T23:50:56.423Z,22.67
2018-12-16T23:53:30.464Z,24.40
2018-12-16T23:56:04.724Z,23.97
2018-12-16T23:58:38.694Z,24.87
